Time;durP1;ratioP1;P1;durP2;ratioP2;P2;SDS_P1;SDS_P2;PMS_P1;PMS_P2;Temp;Humidity;BMP_temperature;BMP_pressure;BME280_temperature;BME280_humidity;BME280_pressure;Samples;Min_cycle;Max_cycle;Signal;HPM_P1;HPM_P2
2022/07/15 00:00:15;;;;;;;11.55;10.80;;;;;;;15.38;51.14;100805.28;4985210;28;20049;-74
2022/07/15 00:02:40;;;;;;;10.10;9.50;;;;;;;15.39;51.08;100810.56;4982357;28;20047;-74
2022/07/15 00:05:07;;;;;;;8.88;8.38;;;;;;;15.37;51.57;100807.06;4986002;28;20045;-74
2022/07/15 00:07:33;;;;;;;10.65;10.05;;;;;;;15.32;51.03;100803.63;4981855;28;20651;-74
2022/07/15 00:12:45;;;;;;;9.50;8.90;;;;;;;15.30;50.61;100793.03;4982402;28;20035;-74
2022/07/15 00:15:11;;;;;;;10.40;9.60;;;;;;;15.22;51.30;100795.00;4983635;28;20489;-75
2022/07/15 00:17:36;;;;;;;10.15;9.50;;;;;;;15.18;51.26;100798.59;4984466;28;20046;-74
2022/07/15 00:20:03;;;;;;;9.60;8.95;;;;;;;15.12;51.39;100801.41;4984769;28;20621;-74
2022/07/15 00:22:28;;;;;;;12.40;11.60;;;;;;;15.01;51.72;100801.63;4988919;28;20045;-74
2022/07/15 00:24:53;;;;;;;9.90;9.02;;;;;;;14.94;52.49;100804.44;4985764;28;20027;-74
2022/07/15 00:27:19;;;;;;;9.93;9.32;;;;;;;14.81;51.88;100809.97;4984844;28;21048;-75
2022/07/15 00:29:44;;;;;;;11.70;10.82;;;;;;;14.72;52.93;100809.28;4986007;28;20141;-74
2022/07/15 00:32:10;;;;;;;10.77;9.98;;;;;;;14.50;53.21;100806.09;4988715;28;20525;-74
2022/07/15 00:34:35;;;;;;;10.75;10.13;;;;;;;14.36;53.94;100806.34;4982885;28;20038;-74
2022/07/15 00:37:00;;;;;;;12.93;12.23;;;;;;;14.25;53.15;100806.50;4981620;28;20393;-74
2022/07/15 00:39:26;;;;;;;15.43;14.43;;;;;;;14.18;53.54;100800.44;4982021;28;20045;-74
2022/07/15 00:41:51;;;;;;;12.35;11.65;;;;;;;14.14;54.07;100803.16;4982869;28;20065;-74
2022/07/15 00:44:17;;;;;;;13.18;12.48;;;;;;;14.07;53.45;100804.16;4994738;28;20117;-74
2022/07/15 00:46:42;;;;;;;21.45;20.35;;;;;;;13.96;53.82;100807.00;4984657;28;20128;-74
2022/07/15 00:49:09;;;;;;;22.10;20.95;;;;;;;13.88;54.38;100803.59;4983796;28;20045;-74
2022/07/15 00:51:41;;;;;;;20.65;19.55;;;;;;;13.81;55.05;100800.16;4984911;28;20044;-74
2022/07/15 00:54:10;;;;;;;23.85;22.63;;;;;;;13.77;55.34;100804.63;4982115;28;20039;-74
2022/07/15 00:56:38;;;;;;;17.77;16.58;;;;;;;13.80;55.11;100803.69;4983468;28;20499;-74
2022/07/15 00:59:05;;;;;;;28.20;26.85;;;;;;;13.80;55.30;100803.69;4979708;28;20113;-74
2022/07/15 01:01:31;;;;;;;28.55;27.05;;;;;;;13.82;55.48;100807.22;4984180;28;20026;-74
2022/07/15 01:03:58;;;;;;;19.85;18.75;;;;;;;13.87;55.66;100800.06;4977260;28;20093;-74
2022/07/15 01:06:26;;;;;;;83.45;79.57;;;;;;;13.92;55.48;100792.91;4981068;28;20046;-74
2022/07/15 01:08:52;;;;;;;33.08;31.42;;;;;;;13.93;54.80;100799.97;4988762;28;20125;-74
2022/07/15 01:11:18;;;;;;;24.10;22.80;;;;;;;13.94;54.78;100801.72;4980199;28;20046;-74
2022/07/15 01:13:43;;;;;;;59.58;56.63;;;;;;;13.91;54.65;100795.56;4984888;28;20038;-74
2022/07/15 01:16:09;;;;;;;10.90;10.30;;;;;;;13.86;54.54;100798.31;4996603;28;20034;-74
2022/07/15 01:18:35;;;;;;;23.17;21.98;;;;;;;13.82;54.32;100801.91;4982407;28;20545;-74
2022/07/15 01:21:00;;;;;;;22.75;21.50;;;;;;;13.79;55.06;100813.44;4982062;28;20129;-74
2022/07/15 01:23:26;;;;;;;20.48;19.35;;;;;;;13.78;55.77;100816.09;4981246;28;20121;-74
2022/07/15 01:26:02;;;;;;;17.88;16.85;;;;;;;13.72;55.83;100819.72;4996571;28;20113;-74
2022/07/15 01:28:27;;;;;;;17.20;15.77;;;;;;;13.68;55.98;100826.00;4982480;28;20125;-74
2022/07/15 01:30:54;;;;;;;24.55;23.35;;;;;;;13.64;56.77;100826.06;4993626;28;20544;-74
2022/07/15 01:33:19;;;;;;;25.30;23.77;;;;;;;13.56;56.82;100834.97;4983463;28;20069;-74
2022/07/15 01:35:45;;;;;;;25.60;24.27;;;;;;;13.54;56.82;100831.47;4983477;28;20026;-74
2022/07/15 01:38:11;;;;;;;21.70;20.60;;;;;;;13.48;56.78;100828.91;4983379;28;20460;-74
2022/07/15 01:40:37;;;;;;;10.65;10.05;;;;;;;13.35;57.96;100832.63;4983322;28;20600;-74
2022/07/15 01:43:04;;;;;;;11.38;10.68;;;;;;;13.23;58.48;100835.38;4981548;28;20023;-74
2022/07/15 01:45:30;;;;;;;89.05;82.10;;;;;;;13.18;58.85;100835.47;4994117;28;20035;-74
2022/07/15 01:47:56;;;;;;;38.83;36.88;;;;;;;13.20;58.64;100832.78;4983047;28;20048;-74
2022/07/15 01:50:39;;;;;;;26.33;24.75;;;;;;;13.20;58.42;100836.28;4982594;28;20062;-74
2022/07/15 01:53:11;;;;;;;51.50;49.10;;;;;;;13.20;58.45;100835.41;4979556;28;20389;-74
2022/07/15 01:55:38;;;;;;;29.48;28.00;;;;;;;13.18;58.72;100835.47;4995485;28;20585;-74
2022/07/15 01:58:03;;;;;;;53.58;50.55;;;;;;;13.16;58.68;100840.75;4982377;28;20054;-74
2022/07/15 02:00:29;;;;;;;49.85;47.17;;;;;;;13.10;59.05;100840.84;4994207;28;20035;-74
2022/07/15 02:02:57;;;;;;;46.80;44.35;;;;;;;13.07;60.21;100850.59;4989193;28;20700;-74
2022/07/15 02:05:22;;;;;;;43.83;41.65;;;;;;;13.01;60.77;100848.88;4981503;28;20047;-74
2022/07/15 02:07:50;;;;;;;251.55;228.27;;;;;;;12.99;60.37;100850.66;4993985;28;20035;-74
2022/07/15 02:10:17;;;;;;;63.63;60.60;;;;;;;12.96;61.52;100853.34;4982236;28;20030;-74
2022/07/15 02:12:47;;;;;;;52.40;49.42;;;;;;;12.96;61.24;100849.84;4993065;28;20042;-74
2022/07/15 02:15:16;;;;;;;37.67;35.90;;;;;;;12.91;62.23;100850.75;4982989;28;20033;-74
2022/07/15 02:17:44;;;;;;;36.55;34.53;;;;;;;12.89;61.86;100849.00;4979128;28;20383;-74
2022/07/15 02:20:11;;;;;;;47.95;45.67;;;;;;;12.92;61.23;100854.31;4982109;28;20041;-74
2022/07/15 02:22:37;;;;;;;37.00;35.20;;;;;;;12.86;61.86;100854.34;4983090;28;20519;-74
2022/07/15 02:25:03;;;;;;;44.65;42.15;;;;;;;12.86;61.71;100857.00;4974221;28;20026;-74
2022/07/15 02:27:30;;;;;;;224.82;204.77;;;;;;;12.85;61.44;100853.47;4979696;28;20035;-74
2022/07/15 02:29:56;;;;;;;171.52;161.30;;;;;;;12.81;61.70;100862.38;4983724;28;20405;-74
2022/07/15 02:32:21;;;;;;;34.33;32.58;;;;;;;12.77;62.21;100860.63;4986620;28;20489;-74
2022/07/15 02:34:47;;;;;;;243.90;231.45;;;;;;;12.74;62.14;100862.44;4982455;28;20035;-74
2022/07/15 02:37:12;;;;;;;149.00;141.38;;;;;;;12.71;62.01;100860.69;4984911;28;20046;-74
2022/07/15 02:39:38;;;;;;;205.73;195.18;;;;;;;12.65;62.32;100860.72;4984309;28;20042;-74
2022/07/15 02:42:03;;;;;;;68.63;64.97;;;;;;;12.59;62.93;100872.25;4997663;28;20042;-74
2022/07/15 02:44:28;;;;;;;31.83;29.92;;;;;;;12.52;63.78;100867.91;4987181;28;20042;-74
2022/07/15 02:46:54;;;;;;;27.50;26.20;;;;;;;12.44;64.10;100872.38;4983009;28;20026;-74
2022/07/15 02:49:24;;;;;;;27.70;25.63;;;;;;;12.39;64.42;100877.75;4985093;28;20057;-74
2022/07/15 02:51:50;;;;;;;24.90;23.58;;;;;;;12.37;64.69;100882.16;5004316;28;20041;-74
2022/07/15 02:54:16;;;;;;;23.17;21.88;;;;;;;12.34;65.57;100879.53;4989756;28;20038;-74
2022/07/15 02:56:42;;;;;;;31.65;30.15;;;;;;;12.33;65.44;100875.13;4984467;28;20060;-74
2022/07/15 02:59:07;;;;;;;24.48;23.27;;;;;;;12.34;65.29;100883.94;4998462;28;20030;-74
2022/07/15 03:01:33;;;;;;;10.57;9.98;;;;;;;12.32;65.48;100880.44;4989100;28;20480;-74
2022/07/15 03:04:00;;;;;;;10.80;10.20;;;;;;;12.28;65.90;100876.94;4984671;28;20022;-74
2022/07/15 03:06:25;;;;;;;8.35;7.85;;;;;;;12.30;66.13;100876.94;4997575;28;20498;-74
2022/07/15 03:08:51;;;;;;;7.97;7.55;;;;;;;12.31;65.67;100884.84;4982970;28;20413;-74
2022/07/15 03:11:18;;;;;;;10.52;9.93;;;;;;;12.33;65.61;100884.84;4997481;28;20031;-74
2022/07/15 03:13:44;;;;;;;10.35;9.75;;;;;;;12.31;65.88;100883.97;4986058;28;20553;-74
2022/07/15 03:16:09;;;;;;;11.32;10.73;;;;;;;12.27;66.43;100886.66;4985025;28;20042;-74
2022/07/15 03:18:36;;;;;;;12.32;11.60;;;;;;;12.22;66.12;100888.44;4996549;28;20418;-74
2022/07/15 03:21:03;;;;;;;14.88;14.07;;;;;;;12.25;66.46;100887.53;4985024;28;20030;-74
2022/07/15 03:23:29;;;;;;;13.10;12.27;;;;;;;12.22;66.59;100898.16;4985588;28;20031;-74
2022/07/15 03:25:55;;;;;;;14.05;13.23;;;;;;;12.23;65.79;100892.84;4998938;28;20421;-74
2022/07/15 03:28:20;;;;;;;38.03;36.08;;;;;;;12.24;66.21;100891.97;4985752;28;20062;-74
2022/07/15 03:30:47;;;;;;;21.08;20.00;;;;;;;12.25;66.14;100904.28;4989731;28;20482;-74
2022/07/15 03:33:14;;;;;;;208.73;190.25;;;;;;;12.25;65.40;100909.59;4983016;28;20041;-74
2022/07/15 03:35:42;;;;;;;505.45;311.67;;;;;;;12.25;66.44;100906.94;4998222;28;20128;-74
2022/07/15 03:38:08;;;;;;;1999.90;999.90;;;;;;;12.24;66.00;100910.50;4985475;28;20117;-74
2022/07/15 03:40:35;;;;;;;1999.90;999.90;;;;;;;12.22;66.41;100909.63;4982126;28;20481;-74
2022/07/15 03:43:00;;;;;;;1999.90;999.90;;;;;;;12.20;66.41;100910.50;4983284;28;20113;-74
2022/07/15 03:45:26;;;;;;;1999.90;999.90;;;;;;;12.20;66.96;100923.75;4979975;28;20031;-74
2022/07/15 03:47:51;;;;;;;1999.90;999.90;;;;;;;12.18;67.44;100918.47;4987700;28;20149;-74
2022/07/15 03:50:17;;;;;;;1144.00;597.90;;;;;;;12.19;66.87;100925.50;4992784;28;20030;-74
2022/07/15 03:52:43;;;;;;;1999.90;999.90;;;;;;;12.19;67.70;100930.81;4983287;28;20064;-74
2022/07/15 03:55:09;;;;;;;74.45;56.38;;;;;;;12.21;67.46;100925.53;4984775;28;20576;-74
2022/07/15 03:57:35;;;;;;;13.93;13.23;;;;;;;12.25;67.52;100925.47;4979117;28;20498;-74
2022/07/15 04:00:03;;;;;;;21.30;20.30;;;;;;;12.32;66.90;100934.25;4983083;28;20030;-74
2022/07/15 04:02:28;;;;;;;25.52;24.20;;;;;;;12.36;67.64;100937.75;4983142;28;20045;-74
2022/07/15 04:04:57;;;;;;;24.23;22.83;;;;;;;12.40;67.15;100942.16;4997272;28;20030;-74
2022/07/15 04:07:23;;;;;;;373.38;345.38;;;;;;;12.39;67.79;100937.72;4989178;28;20536;-74
2022/07/15 04:09:48;;;;;;;151.25;142.02;;;;;;;12.42;68.22;100946.53;5001566;28;20162;-74
2022/07/15 04:12:13;;;;;;;15.18;14.18;;;;;;;12.43;68.52;100944.75;4983832;28;20497;-74
2022/07/15 04:14:39;;;;;;;11.45;10.73;;;;;;;12.45;68.31;100948.28;4996156;28;20042;-75
2022/07/15 04:17:05;;;;;;;11.88;11.15;;;;;;;12.45;68.71;100943.88;4989538;28;20030;-74
2022/07/15 04:19:35;;;;;;;11.82;11.10;;;;;;;12.52;68.23;100954.41;4982655;28;20053;-74
2022/07/15 04:22:02;;;;;;;10.98;10.35;;;;;;;12.58;67.95;100952.59;4982810;28;20034;-74
2022/07/15 04:24:34;;;;;;;14.93;14.13;;;;;;;12.62;68.07;100953.44;4996239;28;20034;-74
2022/07/15 04:26:59;;;;;;;26.48;24.77;;;;;;;12.72;68.00;100942.75;4984953;28;20034;-74
2022/07/15 04:29:25;;;;;;;28.77;27.42;;;;;;;12.79;67.48;100958.63;4982077;28;20034;-74
2022/07/15 04:31:50;;;;;;;30.67;29.15;;;;;;;12.85;67.57;100963.84;4984690;28;20077;-74
2022/07/15 04:34:23;;;;;;;47.42;45.20;;;;;;;12.82;68.11;100959.47;4995497;28;20041;-74
2022/07/15 04:36:48;;;;;;;72.53;69.00;;;;;;;12.90;68.45;100960.25;4991601;28;20030;-75
2022/07/15 04:39:14;;;;;;;23.77;22.50;;;;;;;12.92;68.03;100950.53;4981025;28;20501;-74
2022/07/15 04:41:39;;;;;;;44.00;41.88;;;;;;;12.99;68.33;100956.66;4984445;28;20041;-74
2022/07/15 04:44:04;;;;;;;143.43;132.60;;;;;;;13.13;67.43;100959.19;4993928;28;20066;-74
2022/07/15 04:46:31;;;;;;;45.83;43.45;;;;;;;13.12;67.52;100963.59;4986451;28;20121;-74
2022/07/15 04:52:14;;;;;;;58.30;54.40;;;;;;;13.32;67.66;100973.16;4950275;28;20082;-74
2022/07/15 04:54:43;;;;;;;53.13;49.58;;;;;;;13.34;67.91;100969.59;4985675;28;20121;-75
2022/07/15 04:57:09;;;;;;;187.18;174.57;;;;;;;13.46;67.59;100973.00;4983087;28;20117;-75
2022/07/15 04:59:35;;;;;;;136.13;121.82;;;;;;;13.59;67.25;100978.16;4990914;28;20121;-74
2022/07/15 05:02:01;;;;;;;27.15;25.85;;;;;;;13.64;67.13;100983.41;4972699;28;20039;-74
2022/07/15 05:04:38;;;;;;;19.20;17.75;;;;;;;13.79;66.94;100987.66;4980257;28;20010;-74
2022/07/15 05:07:07;;;;;;;26.83;24.95;;;;;;;13.87;67.20;100987.56;4987044;28;20042;-74
2022/07/15 05:09:34;;;;;;;38.25;36.10;;;;;;;13.99;66.70;100980.34;4977793;28;20026;-74
2022/07/15 05:12:00;;;;;;;39.42;37.22;;;;;;;14.17;66.24;100986.28;4987061;28;20141;-74
2022/07/15 05:14:26;;;;;;;120.60;110.72;;;;;;;14.33;65.84;100997.56;4981042;28;20034;-74
2022/07/15 05:16:51;;;;;;;53.00;49.47;;;;;;;14.43;65.69;100993.88;4984290;28;20030;-74
2022/07/15 05:19:17;;;;;;;16.17;10.27;;;;;;;14.65;65.22;100997.13;4979782;28;20034;-74
2022/07/15 05:21:42;;;;;;;13.60;12.65;;;;;;;14.85;63.96;100994.13;4984455;28;20035;-74
2022/07/15 05:24:08;;;;;;;67.22;62.10;;;;;;;14.92;63.99;101001.13;5000923;28;20030;-74
2022/07/15 05:26:35;;;;;;;76.10;70.50;;;;;;;15.04;63.45;101000.06;4989834;28;20599;-74
2022/07/15 05:29:01;;;;;;;21.00;19.77;;;;;;;15.11;63.20;101007.00;4991092;28;20054;-75
2022/07/15 05:31:27;;;;;;;18.92;17.13;;;;;;;15.25;62.71;101004.13;4981049;28;20037;-75
2022/07/15 05:33:53;;;;;;;245.75;222.25;;;;;;;15.38;62.36;101010.06;4982351;28;20057;-74
2022/07/15 05:36:18;;;;;;;6.25;1.30;;;;;;;15.38;61.90;101023.34;4966298;28;20070;-73
2022/07/15 05:38:45;;;;;;;60.88;54.38;;;;;;;15.42;61.88;101014.44;4986606;28;20072;-74
2022/07/15 05:41:11;;;;;;;19.27;17.45;;;;;;;15.55;61.63;101021.28;4982289;28;20129;-75
2022/07/15 05:43:37;;;;;;;2.42;1.30;;;;;;;15.71;60.90;101020.09;4990620;28;20122;-75
2022/07/15 05:46:03;;;;;;;3.15;1.90;;;;;;;15.88;60.11;101026.91;4979842;28;20030;-75
2022/07/15 05:48:33;;;;;;;6.45;4.75;;;;;;;15.92;60.12;101026.78;4995975;28;20042;-75
2022/07/15 05:50:59;;;;;;;11.00;9.75;;;;;;;15.86;59.71;101026.03;4981029;28;20030;-75
2022/07/15 05:53:25;;;;;;;9.90;9.30;;;;;;;15.86;60.11;101031.38;4994066;28;20146;-75
2022/07/15 05:55:52;;;;;;;13.13;12.35;;;;;;;15.78;60.00;101021.75;4983194;28;20105;-75
2022/07/15 05:58:19;;;;;;;45.58;43.15;;;;;;;15.96;60.12;101030.28;4990258;28;20038;-75
2022/07/15 06:00:44;;;;;;;44.17;42.08;;;;;;;15.93;59.77;101030.34;4992262;28;20050;-74
2022/07/15 06:03:10;;;;;;;46.80;44.25;;;;;;;15.88;59.16;101029.56;4983530;28;20034;-74
2022/07/15 06:05:39;;;;;;;47.63;45.40;;;;;;;15.92;59.75;101032.09;4989714;28;20481;-74
2022/07/15 06:08:05;;;;;;;47.35;45.15;;;;;;;16.03;58.88;101037.19;5005963;28;20081;-74
2022/07/15 06:10:35;;;;;;;52.10;49.40;;;;;;;16.10;58.95;101025.53;4980509;28;20101;-74
2022/07/15 06:13:00;;;;;;;52.90;50.38;;;;;;;16.34;58.54;101028.56;4981890;28;20038;-75
2022/07/15 06:15:26;;;;;;;45.42;43.33;;;;;;;16.46;57.20;101030.97;4993331;28;20421;-74
2022/07/15 06:17:53;;;;;;;43.90;41.40;;;;;;;16.36;56.80;101034.75;4982147;28;20062;-74
2022/07/15 06:20:21;;;;;;;41.55;39.47;;;;;;;16.43;56.79;101039.91;4979712;28;20058;-74
2022/07/15 06:22:47;;;;;;;42.88;40.58;;;;;;;16.47;57.14;101029.19;4978034;28;20062;-75
2022/07/15 06:25:12;;;;;;;41.47;39.40;;;;;;;16.65;56.56;101036.75;4981976;28;20030;-74
2022/07/15 06:27:40;;;;;;;40.53;38.03;;;;;;;16.77;56.27;101025.84;4993075;28;20035;-74
2022/07/15 06:30:06;;;;;;;34.33;32.53;;;;;;;16.84;55.28;101042.53;4983033;28;20128;-75
2022/07/15 06:32:31;;;;;;;61.60;58.50;;;;;;;16.71;56.07;101041.94;4997560;28;20026;-75
2022/07/15 06:34:58;;;;;;;31.02;29.30;;;;;;;16.81;55.62;101029.31;5000777;28;20096;-75
2022/07/15 06:37:23;;;;;;;34.50;32.75;;;;;;;17.00;54.94;101038.63;4998569;28;20038;-75
2022/07/15 06:39:49;;;;;;;33.85;32.20;;;;;;;17.17;54.67;101042.66;4997637;28;20113;-75
2022/07/15 06:42:14;;;;;;;31.65;30.05;;;;;;;17.13;54.37;101032.97;5000894;28;20091;-75
2022/07/15 06:44:40;;;;;;;28.95;27.55;;;;;;;17.03;53.91;101032.34;5002539;28;20029;-75
2022/07/15 06:47:07;;;;;;;27.63;26.23;;;;;;;17.17;53.34;101024.84;5000104;28;20030;-75
2022/07/15 06:49:34;;;;;;;27.60;26.30;;;;;;;17.27;53.38;101038.84;4991824;28;20097;-74
2022/07/15 06:52:00;;;;;;;26.48;24.75;;;;;;;17.22;52.58;101049.63;4988511;28;20042;-74
2022/07/15 06:54:25;;;;;;;27.92;26.60;;;;;;;17.34;52.99;101037.75;4991217;28;20104;-74
2022/07/15 06:56:51;;;;;;;28.08;26.40;;;;;;;17.39;53.02;101046.50;4991261;28;20496;-74
2022/07/15 06:59:16;;;;;;;27.92;26.50;;;;;;;17.34;52.67;101048.41;4983589;28;20133;-74
2022/07/15 07:01:45;;;;;;;25.65;24.45;;;;;;;17.31;52.92;101044.03;4977565;28;20031;-75
2022/07/15 07:04:10;;;;;;;26.35;24.70;;;;;;;17.42;52.92;101062.44;4987126;28;20030;-75
2022/07/15 07:06:35;;;;;;;28.77;26.88;;;;;;;17.43;52.40;101050.84;5010543;28;20034;-75
2022/07/15 07:09:02;;;;;;;26.60;24.75;;;;;;;17.40;52.88;101053.59;4998695;28;20038;-75
2022/07/15 07:11:29;;;;;;;29.85;27.42;;;;;;;17.51;52.78;101045.31;4997456;28;20030;-74
2022/07/15 07:13:54;;;;;;;25.30;23.75;;;;;;;17.68;52.45;101050.19;5001539;28;20035;-75
2022/07/15 07:16:19;;;;;;;28.55;26.63;;;;;;;17.88;51.83;101045.22;5002179;28;20030;-75
2022/07/15 07:18:45;;;;;;;21.95;20.85;;;;;;;18.09;51.49;101058.88;5002094;28;20080;-74
2022/07/15 07:21:11;;;;;;;21.23;20.02;;;;;;;18.14;50.31;101040.91;5000041;28;20120;-75
2022/07/15 07:23:39;;;;;;;20.15;19.05;;;;;;;18.03;50.42;101038.56;5002326;28;20034;-75
2022/07/15 07:26:05;;;;;;;17.83;16.77;;;;;;;18.09;50.17;101042.84;5001390;28;20057;-75
2022/07/15 07:28:30;;;;;;;19.48;18.00;;;;;;;18.26;50.68;101040.56;5001521;28;20023;-75
2022/07/15 07:30:56;;;;;;;16.75;15.82;;;;;;;18.30;50.13;101034.19;4999542;28;20044;-74
2022/07/15 07:33:22;;;;;;;14.75;13.85;;;;;;;18.54;49.37;101039.72;5001049;28;20046;-75
2022/07/15 07:35:47;;;;;;;13.80;13.10;;;;;;;18.50;49.34;101038.06;4998302;28;20034;-75
2022/07/15 07:38:13;;;;;;;14.65;13.05;;;;;;;18.45;48.78;101035.53;5003349;28;20042;-75
2022/07/15 07:40:38;;;;;;;11.70;10.95;;;;;;;18.51;48.29;101043.34;5004805;28;20034;-75
2022/07/15 07:43:03;;;;;;;10.70;9.90;;;;;;;18.52;47.88;101042.44;4995835;28;20086;-75
2022/07/15 07:45:29;;;;;;;9.45;8.85;;;;;;;18.38;48.58;101037.50;4998145;28;20401;-75
2022/07/15 07:47:56;;;;;;;10.00;9.27;;;;;;;18.65;48.73;101042.03;4994394;28;20490;-75
2022/07/15 07:50:21;;;;;;;8.30;7.80;;;;;;;18.56;48.54;101043.22;4987058;28;20128;-75
2022/07/15 07:52:47;;;;;;;8.98;7.80;;;;;;;18.69;47.10;101036.56;4987702;28;20113;-75
2022/07/15 07:55:14;;;;;;;6.43;5.85;;;;;;;18.93;45.83;101034.91;4993180;28;20999;-77
2022/07/15 07:57:51;;;;;;;6.57;6.18;;;;;;;18.98;46.10;101032.97;4996774;28;20033;-76
2022/07/15 08:00:17;;;;;;;5.13;4.82;;;;;;;18.84;44.28;101024.53;5002423;28;20041;-76
2022/07/15 08:02:44;;;;;;;6.95;5.53;;;;;;;18.94;44.42;101038.47;5002614;28;20193;-75
2022/07/15 08:05:10;;;;;;;5.03;4.63;;;;;;;19.00;44.58;101033.78;5004921;28;20044;-76
2022/07/15 08:07:36;;;;;;;5.22;4.72;;;;;;;18.83;44.44;101033.47;4997455;28;20034;-76
2022/07/15 08:10:02;;;;;;;5.72;5.22;;;;;;;18.68;44.49;101040.16;5001784;28;20049;-76
2022/07/15 08:12:28;;;;;;;6.68;6.05;;;;;;;18.52;44.59;101039.78;5003398;28;20131;-77
2022/07/15 08:14:54;;;;;;;4.93;4.53;;;;;;;18.42;44.09;101037.41;5002791;28;20495;-76
2022/07/15 08:17:23;;;;;;;5.70;5.15;;;;;;;18.69;44.98;101033.88;5003656;28;20073;-76
2022/07/15 08:19:49;;;;;;;4.65;4.35;;;;;;;18.94;42.41;101059.84;5004495;28;20038;-77
2022/07/15 08:22:15;;;;;;;5.38;4.97;;;;;;;18.81;42.93;101044.22;5002618;28;20412;-76
2022/07/15 08:24:41;;;;;;;6.30;4.78;;;;;;;18.74;42.63;101063.16;5003860;28;20029;-76
2022/07/15 08:27:06;;;;;;;4.07;3.78;;;;;;;18.67;42.94;101049.09;4996648;28;20503;-74
2022/07/15 08:29:31;;;;;;;5.28;4.57;;;;;;;18.59;43.83;101061.81;4986251;28;20037;-75
2022/07/15 08:31:57;;;;;;;5.40;4.90;;;;;;;18.81;42.50;101059.38;4981607;28;20441;-75
2022/07/15 08:34:22;;;;;;;4.65;4.35;;;;;;;18.66;40.22;101033.97;4997640;28;20393;-75
2022/07/15 08:36:48;;;;;;;4.75;4.38;;;;;;;19.03;40.13;101032.81;5002919;28;20038;-75
2022/07/15 08:39:15;;;;;;;4.25;3.95;;;;;;;19.01;40.14;101030.19;4989546;28;20043;-76
2022/07/15 08:41:40;;;;;;;4.22;3.92;;;;;;;18.81;40.01;101036.22;5000303;28;20080;-75
2022/07/15 08:44:06;;;;;;;4.10;3.80;;;;;;;18.76;40.14;101031.94;5001626;28;20497;-75
2022/07/15 08:46:33;;;;;;;5.03;4.30;;;;;;;18.83;40.50;101025.44;5002389;28;20070;-75
2022/07/15 08:49:04;;;;;;;4.80;4.40;;;;;;;18.89;40.33;101052.00;5001271;28;20511;-76
2022/07/15 08:51:32;;;;;;;5.18;3.90;;;;;;;18.77;40.65;101037.22;5002338;28;20456;-75
2022/07/15 08:53:57;;;;;;;5.10;4.65;;;;;;;18.93;40.79;101039.41;5003944;28;20041;-76
2022/07/15 08:56:24;;;;;;;5.00;4.65;;;;;;;18.97;40.40;101035.72;4999031;28;20113;-76
2022/07/15 08:58:49;;;;;;;4.43;4.07;;;;;;;19.12;40.92;101034.31;5003971;28;20116;-75
2022/07/15 09:01:14;;;;;;;4.45;3.83;;;;;;;19.34;39.76;101037.16;5002411;28;20125;-75
2022/07/15 09:03:41;;;;;;;4.53;4.10;;;;;;;19.47;40.56;101028.63;5003270;28;20056;-75
2022/07/15 09:06:06;;;;;;;5.10;4.13;;;;;;;19.78;38.45;101029.34;5001624;28;20100;-75
2022/07/15 09:08:32;;;;;;;5.32;4.03;;;;;;;19.59;39.43;101042.50;5002116;28;20041;-76
2022/07/15 09:10:59;;;;;;;3.53;3.30;;;;;;;19.74;38.16;101033.09;4994495;28;20680;-76
2022/07/15 09:13:33;;;;;;;4.20;2.75;;;;;;;19.53;38.06;101054.31;4998924;28;20069;-75
2022/07/15 09:16:10;;;;;;;3.20;2.90;;;;;;;19.50;38.31;101030.31;4999474;28;20096;-75
2022/07/15 09:18:40;;;;;;;3.30;3.00;;;;;;;19.63;37.97;101037.00;4994625;28;20042;-76
2022/07/15 09:21:26;;;;;;;3.65;3.33;;;;;;;19.94;38.64;101038.59;4990491;28;20038;-76
2022/07/15 09:23:53;;;;;;;3.28;2.95;;;;;;;20.18;38.60;101044.84;5000283;28;20602;-75
2022/07/15 09:26:28;;;;;;;3.88;3.58;;;;;;;20.23;37.31;101033.94;5003983;28;20042;-75
2022/07/15 09:28:55;;;;;;;3.30;3.05;;;;;;;20.49;36.74;101054.38;5003330;28;20053;-76
2022/07/15 09:34:16;;;;;;;5.10;2.80;;;;;;;20.47;37.32;101027.63;5001215;28;20044;-76
2022/07/15 09:36:46;;;;;;;2.92;2.72;;;;;;;20.78;37.13;101023.75;5002416;28;20041;-76
2022/07/15 09:39:11;;;;;;;3.92;2.38;;;;;;;20.45;36.57;101028.63;4991971;28;20049;-76
2022/07/15 09:41:39;;;;;;;9.25;3.13;;;;;;;20.49;36.80;101051.72;4997764;28;20026;-76
2022/07/15 09:44:12;;;;;;;2.63;2.42;;;;;;;20.32;36.86;101033.56;5003145;28;20037;-76
2022/07/15 09:46:49;;;;;;;3.42;3.03;;;;;;;20.34;37.34;101023.69;4999160;28;20049;-76
2022/07/15 09:49:24;;;;;;;4.20;2.97;;;;;;;20.06;36.81;101040.78;4999010;28;20034;-76
2022/07/15 09:51:57;;;;;;;2.80;2.40;;;;;;;19.76;38.02;101023.19;4978505;28;20047;-76
2022/07/15 09:54:31;;;;;;;4.38;2.85;;;;;;;20.06;37.39;101034.56;4985730;28;20046;-76
2022/07/15 09:57:02;;;;;;;2.55;2.35;;;;;;;20.13;37.63;101026.25;4988404;28;20034;-76
2022/07/15 09:59:29;;;;;;;3.33;3.00;;;;;;;20.17;38.21;101040.38;4986644;28;20099;-77
2022/07/15 10:01:55;;;;;;;4.75;2.40;;;;;;;20.33;38.06;101030.84;4989220;28;20085;-76
2022/07/15 10:04:24;;;;;;;2.65;2.40;;;;;;;20.35;36.63;101023.59;4989468;28;20078;-76
2022/07/15 10:06:52;;;;;;;3.85;2.90;;;;;;;20.44;36.88;101043.84;4980687;28;20035;-76
2022/07/15 10:09:30;;;;;;;6.60;2.97;;;;;;;20.35;36.92;101028.97;4982010;28;20097;-77
2022/07/15 10:12:00;;;;;;;3.35;2.65;;;;;;;20.11;37.25;101041.50;4980355;28;20041;-76
2022/07/15 10:15:03;;;;;;;5.50;2.08;;;;;;;19.94;37.58;101038.59;4979955;28;20038;-76
2022/07/15 10:18:00;;;;;;;6.97;2.33;;;;;;;20.25;37.37;101032.06;4985671;28;20112;-76
2022/07/15 10:20:34;;;;;;;3.63;2.85;;;;;;;20.32;37.32;101037.13;4981575;28;20094;-76
2022/07/15 10:23:27;;;;;;;2.60;2.40;;;;;;;20.55;37.44;101057.72;4984513;28;20120;-76
2022/07/15 10:26:06;;;;;;;2.30;2.08;;;;;;;20.45;37.01;101036.66;4983356;28;20074;-76
2022/07/15 10:28:49;;;;;;;8.05;1.95;;;;;;;20.63;36.39;101037.78;4981462;28;20037;-76
2022/07/15 10:31:26;;;;;;;3.60;2.28;;;;;;;20.57;37.02;101041.59;4986859;28;20406;-76
2022/07/15 10:34:04;;;;;;;3.92;2.50;;;;;;;20.90;35.69;101036.66;4979490;28;20097;-76
2022/07/15 10:36:53;;;;;;;2.10;1.90;;;;;;;21.19;35.55;101023.81;4979672;28;20038;-76
2022/07/15 10:39:21;;;;;;;3.08;2.25;;;;;;;20.66;35.57;101041.19;4980949;28;20533;-76
2022/07/15 10:41:46;;;;;;;3.58;2.03;;;;;;;20.38;35.23;101035.13;4980556;28;20512;-76
2022/07/15 10:44:11;;;;;;;1.98;1.88;;;;;;;20.42;35.61;101043.00;4980967;28;20113;-76
2022/07/15 10:46:37;;;;;;;3.08;1.95;;;;;;;20.64;35.55;101047.56;5000806;28;20406;-76
2022/07/15 10:49:02;;;;;;;2.17;1.70;;;;;;;20.85;35.41;101022.53;4983637;28;20448;-76
2022/07/15 10:51:36;;;;;;;2.35;2.13;;;;;;;21.23;35.15;101018.25;4985456;28;20449;-76
2022/07/15 10:54:02;;;;;;;2.83;2.35;;;;;;;21.34;34.98;101036.59;4982123;28;20042;-76
2022/07/15 10:56:35;;;;;;;3.33;2.13;;;;;;;21.34;34.91;101025.00;4977830;28;20457;-76
2022/07/15 10:59:11;;;;;;;3.78;2.15;;;;;;;21.32;34.14;101043.84;4984382;28;20133;-75
2022/07/15 11:01:38;;;;;;;2.50;2.30;;;;;;;21.29;34.01;101035.91;4985803;28;20040;-76
2022/07/15 11:04:19;;;;;;;2.78;2.30;;;;;;;21.17;34.79;101033.78;4983762;28;20042;-75
2022/07/15 11:07:09;;;;;;;7.32;1.90;;;;;;;21.47;34.69;101031.59;4983536;28;20039;-76
2022/07/15 11:10:03;;;;;;;2.35;1.63;;;;;;;21.86;34.14;101039.72;4982139;28;20061;-76
2022/07/15 11:12:28;;;;;;;4.47;1.73;;;;;;;21.63;34.23;101032.66;4986460;28;20526;-76
2022/07/15 11:15:04;;;;;;;1.75;1.60;;;;;;;21.23;34.66;101017.41;4986776;28;20053;-73
2022/07/15 11:17:29;;;;;;;2.03;1.73;;;;;;;21.61;34.10;101018.47;4985134;28;20039;-74
2022/07/15 11:20:01;;;;;;;2.63;1.90;;;;;;;21.71;32.72;101020.72;4990210;28;20161;-74
2022/07/15 11:22:28;;;;;;;2.28;1.90;;;;;;;21.23;34.31;101022.78;4984954;28;20042;-74
2022/07/15 11:24:55;;;;;;;3.67;1.83;;;;;;;21.64;33.49;101012.03;4984114;28;20034;-74